createdAt,value
2022-10-21T00:00:40.749Z,36.92
2022-10-21T00:03:14.699Z,35.75
2022-10-21T00:05:41.600Z,36.00
2022-10-21T00:08:14.700Z,38.45
2022-10-21T00:10:41.850Z,38.92
2022-10-21T00:13:15.676Z,37.70
2022-10-21T00:15:42.690Z,35.65
2022-10-21T00:18:15.740Z,35.42
2022-10-21T00:20:42.839Z,35.00
2022-10-21T00:23:09.946Z,36.25
2022-10-21T00:25:44.764Z,34.63
2022-10-21T00:28:11.672Z,36.55
2022-10-21T00:30:51.788Z,34.65
2022-10-21T00:33:25.737Z,35.25
2022-10-21T00:36:08.744Z,36.80
2022-10-21T00:38:35.896Z,36.13
2022-10-21T00:41:15.753Z,36.35
2022-10-21T00:44:07.367Z,36.90
2022-10-21T00:47:07.772Z,35.28
2022-10-21T00:49:44.077Z,36.88
2022-10-21T00:52:26.727Z,37.22
2022-10-21T00:54:55.195Z,36.25
2022-10-21T00:57:28.714Z,37.33
2022-10-21T01:00:06.743Z,36.28
2022-10-21T01:02:39.717Z,42.42
2022-10-21T01:05:13.723Z,45.03
2022-10-21T01:07:47.135Z,39.97
2022-10-21T01:10:20.722Z,37.42
2022-10-21T01:13:12.559Z,37.35
2022-10-21T01:15:55.739Z,34.80
2022-10-21T01:18:49.728Z,37.55
2022-10-21T01:21:37.274Z,36.50
2022-10-21T01:25:07.837Z,36.22
2022-10-21T01:27:51.747Z,37.20
2022-10-21T01:30:35.325Z,34.70
2022-10-21T01:33:47.743Z,34.20
2022-10-21T01:36:33.387Z,34.30
2022-10-21T01:39:33.775Z,36.13
2022-10-21T01:42:39.116Z,36.95
2022-10-21T01:45:25.754Z,38.67
2022-10-21T01:48:01.736Z,36.45
2022-10-21T01:50:37.763Z,35.47
2022-10-21T01:53:09.853Z,35.65
2022-10-21T01:55:36.762Z,33.75
2022-10-21T01:58:17.796Z,33.40
2022-10-21T02:00:44.845Z,32.83
2022-10-21T02:03:20.797Z,31.88
2022-10-21T02:05:47.753Z,32.50
2022-10-21T02:08:20.807Z,33.33
2022-10-21T02:10:50.076Z,33.25
2022-10-21T02:14:00.802Z,33.17
2022-10-21T02:16:32.567Z,30.50
2022-10-21T02:18:59.874Z,30.15
2022-10-21T02:21:35.781Z,32.25
2022-10-21T02:24:39.787Z,29.10
2022-10-21T02:27:06.654Z,30.05
2022-10-21T02:29:43.806Z,30.95
2022-10-21T02:32:31.722Z,30.40
2022-10-21T02:35:35.844Z,32.42
2022-10-21T02:38:14.804Z,30.58
2022-10-21T02:40:57.775Z,32.15
2022-10-21T02:43:33.825Z,31.27
2022-10-21T02:46:11.786Z,31.38
2022-10-21T02:48:39.749Z,30.10
2022-10-21T02:51:13.766Z,31.23
2022-10-21T02:53:41.002Z,30.77
2022-10-21T02:56:14.809Z,31.98
2022-10-21T02:58:47.817Z,35.15
2022-10-21T03:01:14.819Z,33.60
2022-10-21T03:03:47.802Z,33.25
2022-10-21T03:06:14.739Z,32.42
2022-10-21T03:08:47.871Z,34.05
2022-10-21T03:11:14.845Z,34.78
2022-10-21T03:13:47.840Z,33.38
2022-10-21T03:16:14.807Z,34.47
2022-10-21T03:18:47.862Z,34.33
2022-10-21T03:21:14.757Z,35.22
2022-10-21T03:23:41.673Z,32.47
2022-10-21T03:26:14.887Z,32.65
2022-10-21T03:28:47.852Z,31.63
2022-10-21T03:31:20.855Z,32.47
2022-10-21T03:33:47.770Z,30.92
2022-10-21T03:36:20.794Z,30.88
2022-10-21T03:38:47.702Z,30.67
2022-10-21T03:41:20.880Z,31.42
2022-10-21T03:43:47.812Z,34.85
2022-10-21T03:46:20.857Z,34.08
2022-10-21T03:48:47.745Z,36.80
2022-10-21T03:51:14.629Z,37.67
2022-10-21T03:53:47.884Z,36.65
2022-10-21T03:56:14.816Z,37.05
2022-10-21T03:58:47.838Z,36.05
2022-10-21T04:01:14.851Z,35.50
2022-10-21T04:03:48.840Z,35.95
2022-10-21T04:06:21.880Z,35.65
2022-10-21T04:08:48.987Z,36.58
2022-10-21T04:11:22.883Z,35.42
2022-10-21T04:13:49.827Z,35.05
2022-10-21T04:16:25.860Z,37.53
2022-10-21T04:18:52.852Z,35.75
2022-10-21T04:21:25.876Z,36.40
2022-10-21T04:23:58.865Z,35.50
2022-10-21T04:26:25.793Z,35.42
2022-10-21T04:28:58.869Z,35.05
2022-10-21T04:31:29.797Z,33.72
2022-10-21T04:34:05.849Z,34.47
2022-10-21T04:36:38.912Z,35.28
2022-10-21T04:39:05.996Z,36.40
2022-10-21T04:41:39.903Z,37.08
2022-10-21T04:44:06.892Z,38.42
2022-10-21T04:46:39.876Z,39.25
2022-10-21T04:49:06.804Z,37.80
2022-10-21T04:51:39.916Z,38.38
2022-10-21T04:54:06.909Z,38.67
2022-10-21T04:56:40.059Z,39.35
2022-10-21T04:59:07.017Z,38.25
2022-10-21T05:01:34.280Z,38.10
2022-10-21T05:04:07.919Z,40.78
2022-10-21T05:06:34.880Z,39.65
2022-10-21T05:09:08.018Z,38.33
2022-10-21T05:11:35.076Z,38.78
2022-10-21T05:14:08.904Z,38.22
2022-10-21T05:16:35.835Z,37.85
2022-10-21T05:19:08.892Z,38.28
2022-10-21T05:24:02.608Z,37.30
2022-10-21T05:26:36.048Z,40.13
2022-10-21T05:29:09.904Z,42.90
2022-10-21T05:31:42.911Z,43.85
2022-10-21T05:34:09.793Z,43.65
2022-10-21T05:36:42.929Z,41.50
2022-10-21T05:39:09.850Z,40.65
2022-10-21T05:41:47.003Z,39.53
2022-10-21T05:44:21.957Z,41.80
2022-10-21T05:46:48.842Z,42.78
2022-10-21T05:49:21.953Z,43.75
2022-10-21T05:51:48.850Z,42.15
2022-10-21T05:54:21.933Z,41.30
2022-10-21T05:56:48.876Z,39.17
2022-10-21T05:59:22.012Z,42.10
2022-10-21T06:01:48.995Z,41.13
2022-10-21T06:04:21.972Z,39.30
2022-10-21T06:06:48.913Z,39.20
2022-10-21T06:09:21.977Z,40.40
2022-10-21T06:11:54.979Z,39.33
2022-10-21T06:14:21.879Z,40.08
2022-10-21T06:16:48.759Z,41.53
2022-10-21T06:19:21.939Z,39.88
2022-10-21T06:21:48.982Z,42.72
2022-10-21T06:24:16.071Z,43.30
2022-10-21T06:26:49.987Z,43.15
2022-10-21T06:29:23.909Z,45.80
2022-10-21T06:31:57.155Z,49.20
2022-10-21T06:34:24.232Z,51.85
2022-10-21T06:36:58.030Z,52.03
2022-10-21T06:39:25.205Z,51.42
2022-10-21T06:41:59.034Z,48.05
2022-10-21T06:44:32.697Z,50.95
2022-10-21T06:47:06.034Z,49.60
2022-10-21T06:49:36.165Z,48.00
2022-10-21T06:52:10.063Z,48.40
2022-10-21T06:54:36.971Z,46.85
2022-10-21T06:57:10.976Z,49.13
2022-10-21T06:59:37.852Z,49.47
2022-10-21T07:02:10.984Z,46.45
2022-10-21T07:04:37.892Z,45.60
2022-10-21T07:07:10.975Z,45.70
2022-10-21T07:09:44.065Z,43.03
2022-10-21T07:12:17.991Z,45.85
2022-10-21T07:14:51.010Z,44.55
2022-10-21T07:17:18.197Z,44.47
2022-10-21T07:19:45.212Z,46.72
2022-10-21T07:22:21.211Z,43.33
2022-10-21T07:24:51.644Z,46.35
2022-10-21T07:27:25.903Z,44.90
2022-10-21T07:29:52.855Z,48.60
2022-10-21T07:32:26.002Z,47.22
2022-10-21T07:34:52.917Z,49.38
2022-10-21T07:37:19.814Z,50.33
2022-10-21T07:39:53.016Z,45.22
2022-10-21T07:42:20.065Z,44.08
2022-10-21T07:44:56.030Z,44.13
2022-10-21T07:47:22.937Z,44.55
2022-10-21T07:49:56.000Z,44.75
2022-10-21T07:52:22.941Z,45.78
2022-10-21T07:54:56.007Z,45.00
2022-10-21T07:57:22.875Z,47.63
2022-10-21T07:59:49.778Z,48.17
2022-10-21T08:02:22.990Z,47.65
2022-10-21T08:04:49.922Z,49.05
2022-10-21T08:07:23.026Z,47.17
2022-10-21T08:09:49.931Z,47.88
2022-10-21T08:12:23.090Z,47.20
2022-10-21T08:14:50.621Z,46.20
2022-10-21T08:17:24.047Z,45.90
2022-10-21T08:19:50.940Z,48.38
2022-10-21T08:22:17.892Z,47.53
2022-10-21T08:24:51.034Z,49.25
2022-10-21T08:27:24.027Z,49.00
2022-10-21T08:29:57.083Z,51.00
2022-10-21T08:32:31.072Z,45.72
2022-10-21T08:34:58.081Z,48.03
2022-10-21T08:37:32.056Z,50.47
2022-10-21T08:40:05.070Z,50.33
2022-10-21T08:42:32.060Z,49.38
2022-10-21T08:45:08.066Z,48.05
2022-10-21T08:47:41.340Z,48.75
2022-10-21T08:50:25.067Z,53.22
2022-10-21T08:53:06.003Z,53.42
2022-10-21T08:55:45.122Z,49.70
2022-10-21T08:58:24.719Z,48.75
2022-10-21T09:01:12.075Z,48.75
2022-10-21T09:03:47.273Z,49.85
2022-10-21T09:06:28.152Z,48.40
2022-10-21T09:09:22.770Z,50.58
2022-10-21T09:12:01.078Z,47.65
2022-10-21T09:15:01.298Z,52.60
2022-10-21T09:17:50.114Z,47.22
2022-10-21T09:20:34.101Z,44.58
2022-10-21T09:23:28.806Z,47.88
2022-10-21T09:26:11.160Z,47.00
2022-10-21T09:28:38.349Z,45.38
2022-10-21T09:31:26.118Z,48.72
2022-10-21T09:33:57.582Z,50.28
2022-10-21T09:36:43.101Z,47.10
2022-10-21T09:39:32.380Z,48.55
2022-10-21T09:42:11.512Z,44.63
2022-10-21T09:44:45.305Z,48.58
2022-10-21T09:47:28.068Z,47.05
2022-10-21T09:50:13.308Z,43.95
2022-10-21T09:52:47.112Z,47.25
2022-10-21T09:55:14.382Z,46.60
2022-10-21T09:58:12.128Z,49.42
2022-10-21T10:00:49.442Z,44.92
2022-10-21T10:03:51.102Z,52.47
2022-10-21T10:06:36.427Z,53.55
2022-10-21T10:09:32.143Z,49.95
2022-10-21T10:12:17.109Z,52.22
2022-10-21T10:14:45.615Z,52.70
2022-10-21T10:17:42.148Z,48.08
2022-10-21T10:20:20.133Z,54.05
2022-10-21T10:23:06.125Z,52.63
2022-10-21T10:25:38.575Z,53.80
2022-10-21T10:28:26.113Z,53.55
2022-10-21T10:30:55.260Z,52.20
2022-10-21T10:33:38.205Z,52.92
2022-10-21T10:36:11.156Z,55.38
2022-10-21T10:39:15.240Z,50.55
2022-10-21T10:41:48.280Z,52.53
2022-10-21T10:44:42.257Z,52.00
2022-10-21T10:47:18.833Z,57.35
2022-10-21T10:49:52.217Z,53.65
2022-10-21T10:52:21.227Z,53.42
2022-10-21T10:54:55.104Z,52.97
2022-10-21T10:57:34.095Z,54.72
2022-10-21T11:00:29.127Z,47.88
2022-10-21T11:03:06.895Z,50.42
2022-10-21T11:05:51.159Z,55.00
2022-10-21T11:08:41.891Z,51.17
2022-10-21T11:11:32.522Z,51.97
2022-10-21T11:16:59.591Z,54.03
2022-10-21T11:20:01.147Z,52.47
2022-10-21T11:26:09.961Z,46.05
2022-10-21T11:28:50.139Z,49.92
2022-10-21T11:31:53.759Z,52.53
2022-10-21T11:34:40.957Z,49.78
2022-10-21T11:37:31.148Z,50.75
2022-10-21T11:40:23.796Z,49.75
2022-10-21T11:42:59.417Z,48.47
2022-10-21T11:45:41.352Z,53.92
2022-10-21T11:48:52.173Z,54.40
2022-10-21T11:51:46.570Z,50.17
2022-10-21T11:55:02.005Z,47.65
2022-10-21T11:57:49.915Z,46.70
2022-10-21T12:00:29.203Z,46.20
2022-10-21T12:04:26.202Z,46.67
2022-10-21T12:07:28.645Z,44.58
2022-10-21T12:10:46.229Z,45.53
2022-10-21T12:13:20.944Z,44.85
2022-10-21T12:16:21.205Z,48.10
2022-10-21T12:18:56.632Z,46.25
2022-10-21T12:21:36.172Z,46.10
2022-10-21T12:24:29.145Z,47.88
2022-10-21T12:27:41.359Z,44.33
2022-10-21T12:30:36.286Z,45.35
2022-10-21T12:33:47.210Z,46.90
2022-10-21T12:36:30.176Z,45.08
2022-10-21T12:39:00.065Z,45.88
2022-10-21T12:41:43.164Z,42.17
2022-10-21T12:44:26.756Z,46.47
2022-10-21T12:47:07.195Z,45.88
2022-10-21T12:49:41.198Z,47.92
2022-10-21T12:52:37.458Z,45.13
2022-10-21T12:55:12.385Z,43.42
2022-10-21T12:57:46.210Z,47.05
2022-10-21T13:00:35.582Z,48.78
2022-10-21T13:03:12.212Z,50.50
2022-10-21T13:05:39.084Z,49.15
2022-10-21T13:08:28.417Z,42.28
2022-10-21T13:11:04.690Z,45.45
2022-10-21T13:13:54.222Z,51.75
2022-10-21T13:16:27.218Z,44.65
2022-10-21T13:19:02.371Z,43.13
2022-10-21T13:21:49.327Z,44.67
2022-10-21T13:24:40.568Z,42.40
2022-10-21T13:27:40.245Z,46.20
2022-10-21T13:30:07.859Z,43.28
2022-10-21T13:32:45.249Z,43.53
2022-10-21T13:35:25.300Z,47.78
2022-10-21T13:38:10.278Z,41.90
2022-10-21T13:40:53.255Z,40.63
2022-10-21T13:43:40.243Z,44.30
2022-10-21T13:46:25.258Z,41.58
2022-10-21T13:48:52.338Z,47.00
2022-10-21T13:51:35.322Z,53.03
2022-10-21T13:54:15.652Z,46.53
2022-10-21T13:56:49.262Z,43.25
2022-10-21T13:59:26.830Z,42.83
2022-10-21T14:02:02.275Z,43.13
2022-10-21T14:04:31.291Z,41.50
2022-10-21T14:07:10.252Z,41.47
2022-10-21T14:09:46.109Z,45.05
2022-10-21T14:12:32.282Z,41.42
2022-10-21T14:15:14.265Z,42.90
2022-10-21T14:17:49.288Z,41.25
2022-10-21T14:20:22.700Z,45.80
2022-10-21T14:22:56.293Z,45.00
2022-10-21T14:25:23.254Z,44.63
2022-10-21T14:27:50.146Z,43.30
2022-10-21T14:30:33.334Z,44.90
2022-10-21T14:33:02.474Z,43.92
2022-10-21T14:35:37.272Z,41.15
2022-10-21T14:38:04.299Z,39.75
2022-10-21T14:40:41.285Z,45.63
2022-10-21T14:43:18.927Z,37.92
2022-10-21T14:45:57.293Z,45.63
2022-10-21T14:48:48.682Z,42.05
2022-10-21T14:51:23.292Z,41.65
2022-10-21T14:53:59.120Z,41.05
2022-10-21T14:56:43.299Z,42.20
2022-10-21T14:59:31.399Z,41.05
2022-10-21T15:02:05.275Z,41.78
2022-10-21T15:04:48.464Z,39.65
2022-10-21T15:07:38.285Z,40.80
2022-10-21T15:10:05.108Z,40.75
2022-10-21T15:12:53.352Z,40.35
2022-10-21T15:16:01.517Z,37.53
2022-10-21T15:18:32.725Z,38.10
2022-10-21T15:21:12.315Z,37.67
2022-10-21T15:23:43.813Z,41.88
2022-10-21T15:26:29.290Z,36.97
2022-10-21T15:28:56.179Z,39.13
2022-10-21T15:31:25.350Z,36.83
2022-10-21T15:34:00.267Z,38.60
2022-10-21T15:36:27.143Z,38.10
2022-10-21T15:39:01.022Z,37.25
2022-10-21T15:41:29.230Z,35.40
2022-10-21T15:44:08.332Z,35.42
2022-10-21T15:46:35.295Z,34.22
2022-10-21T15:49:19.328Z,35.10
2022-10-21T15:51:46.819Z,33.45
2022-10-21T15:54:20.310Z,33.90
2022-10-21T15:56:51.095Z,32.88
2022-10-21T15:59:31.354Z,34.83
2022-10-21T16:01:58.561Z,34.40
2022-10-21T16:04:32.350Z,33.90
2022-10-21T16:06:59.332Z,36.80
2022-10-21T16:09:34.610Z,34.60
2022-10-21T16:12:01.848Z,34.30
2022-10-21T16:14:42.753Z,35.75
2022-10-21T16:17:10.041Z,34.13
2022-10-21T16:19:37.661Z,33.53
2022-10-21T16:22:26.496Z,32.08
2022-10-21T16:24:55.703Z,32.00
2022-10-21T16:27:43.805Z,32.88
2022-10-21T16:30:23.094Z,32.17
2022-10-21T16:32:57.965Z,30.95
2022-10-21T16:35:25.256Z,31.77
2022-10-21T16:37:59.520Z,32.85
2022-10-21T16:40:33.047Z,32.70
2022-10-21T16:43:06.489Z,32.50
2022-10-21T16:45:33.795Z,30.75
2022-10-21T16:48:07.904Z,31.33
2022-10-21T16:50:41.085Z,30.27
2022-10-21T16:53:24.586Z,31.30
2022-10-21T16:55:51.827Z,32.40
2022-10-21T16:58:25.437Z,32.50
2022-10-21T17:00:52.571Z,30.98
2022-10-21T17:03:26.430Z,31.50
2022-10-21T17:06:01.680Z,31.13
2022-10-21T17:08:35.476Z,31.40
2022-10-21T17:11:04.461Z,31.58
2022-10-21T17:13:37.661Z,31.98
2022-10-21T17:16:05.713Z,32.60
2022-10-21T17:18:40.734Z,36.25
2022-10-21T17:21:09.812Z,35.45
2022-10-21T17:23:44.501Z,33.83
2022-10-21T17:26:12.087Z,33.13
2022-10-21T17:28:39.272Z,32.15
2022-10-21T17:31:12.412Z,31.15
2022-10-21T17:33:39.483Z,32.95
2022-10-21T17:36:13.437Z,31.15
2022-10-21T17:38:47.391Z,29.88
2022-10-21T17:41:22.374Z,33.47
2022-10-21T17:44:02.383Z,32.45
2022-10-21T17:46:35.432Z,35.33
2022-10-21T17:49:02.370Z,32.97
2022-10-21T17:51:35.387Z,32.85
2022-10-21T17:54:02.323Z,30.67
2022-10-21T17:56:35.456Z,32.40
2022-10-21T17:59:02.493Z,32.13
2022-10-21T18:01:36.485Z,31.13
2022-10-21T18:04:03.523Z,34.75
2022-10-21T18:06:36.619Z,30.50
2022-10-21T18:09:03.714Z,29.77
2022-10-21T18:11:30.816Z,29.67
2022-10-21T18:14:04.391Z,26.80
2022-10-21T18:16:31.411Z,27.70
2022-10-21T18:19:04.456Z,28.70
2022-10-21T18:21:31.369Z,30.00
2022-10-21T18:24:07.467Z,30.75
2022-10-21T18:26:37.047Z,28.77
2022-10-21T18:29:11.418Z,28.77
2022-10-21T18:31:38.451Z,29.63
2022-10-21T18:34:12.412Z,30.00
2022-10-21T18:36:45.450Z,30.25
2022-10-21T18:39:19.440Z,26.65
2022-10-21T18:41:46.308Z,25.35
2022-10-21T18:44:20.437Z,26.92
2022-10-21T18:46:49.252Z,26.15
2022-10-21T18:49:24.427Z,28.20
2022-10-21T18:51:51.370Z,26.95
2022-10-21T18:54:24.434Z,25.95
2022-10-21T18:56:51.272Z,26.30
2022-10-21T18:59:24.425Z,26.10
2022-10-21T19:01:51.344Z,27.38
2022-10-21T19:04:18.306Z,29.33
2022-10-21T19:06:52.517Z,30.23
2022-10-21T19:09:22.231Z,30.05
2022-10-21T19:11:55.697Z,31.65
2022-10-21T19:14:29.485Z,32.30
2022-10-21T19:16:56.564Z,31.92
2022-10-21T19:19:29.433Z,30.20
2022-10-21T19:21:56.333Z,28.60
2022-10-21T19:24:23.242Z,26.73
2022-10-21T19:27:02.445Z,26.38
2022-10-21T19:29:29.315Z,25.73
2022-10-21T19:32:02.504Z,26.15
2022-10-21T19:34:29.398Z,25.83
2022-10-21T19:37:02.527Z,25.92
2022-10-21T19:39:29.570Z,31.35
2022-10-21T19:42:02.502Z,29.70
2022-10-21T19:44:42.511Z,29.75
2022-10-21T19:47:15.461Z,26.70
2022-10-21T19:49:42.329Z,25.95
2022-10-21T19:52:15.486Z,28.67
2022-10-21T19:54:48.473Z,28.92
2022-10-21T19:57:15.383Z,25.90
2022-10-21T19:59:42.285Z,24.20
2022-10-21T20:02:17.596Z,25.80
2022-10-21T20:04:44.696Z,24.63
2022-10-21T20:07:11.676Z,25.40
2022-10-21T20:09:45.510Z,25.63
2022-10-21T20:12:18.508Z,24.83
2022-10-21T20:14:45.435Z,24.42
2022-10-21T20:17:18.575Z,22.75
2022-10-21T20:19:50.728Z,22.42
2022-10-21T20:22:24.538Z,23.95
2022-10-21T20:24:52.018Z,22.77
2022-10-21T20:27:18.940Z,23.17
2022-10-21T20:29:52.511Z,21.80
2022-10-21T20:32:19.515Z,22.05
2022-10-21T20:34:52.529Z,21.77
2022-10-21T20:37:26.250Z,22.05
2022-10-21T20:39:53.138Z,21.90
2022-10-21T20:42:26.507Z,21.80
2022-10-21T20:44:53.397Z,21.02
2022-10-21T20:47:30.122Z,21.45
2022-10-21T20:49:57.868Z,21.13
2022-10-21T20:52:31.539Z,22.42
2022-10-21T20:54:58.475Z,22.60
2022-10-21T20:57:31.536Z,21.65
2022-10-21T20:59:58.429Z,23.13
2022-10-21T21:02:31.507Z,25.25
2022-10-21T21:04:58.383Z,22.98
2022-10-21T21:07:31.583Z,23.38
2022-10-21T21:10:02.847Z,21.75
2022-10-21T21:12:36.601Z,23.05
2022-10-21T21:15:05.072Z,22.90
2022-10-21T21:17:38.669Z,24.33
2022-10-21T21:20:06.470Z,23.80
2022-10-21T21:22:42.996Z,22.25
2022-10-21T21:25:17.545Z,24.38
2022-10-21T21:27:44.595Z,23.48
2022-10-21T21:30:18.558Z,21.75
2022-10-21T21:32:45.512Z,21.48
2022-10-21T21:35:12.445Z,22.52
2022-10-21T21:37:45.555Z,22.33
2022-10-21T21:40:20.600Z,22.25
2022-10-21T21:42:47.560Z,23.30
2022-10-21T21:45:27.565Z,22.00
2022-10-21T21:48:01.640Z,22.45
2022-10-21T21:50:28.942Z,20.92
2022-10-21T21:53:02.598Z,21.10
2022-10-21T21:55:29.520Z,21.40
2022-10-21T21:58:02.597Z,21.75
2022-10-21T22:00:29.598Z,21.50
2022-10-21T22:03:03.563Z,20.90
2022-10-21T22:05:30.595Z,23.13
2022-10-21T22:08:07.571Z,23.33
2022-10-21T22:10:34.506Z,23.73
2022-10-21T22:13:07.578Z,22.05
2022-10-21T22:15:47.735Z,23.45
2022-10-21T22:18:23.875Z,22.75
2022-10-21T22:20:57.577Z,22.65
2022-10-21T22:23:30.597Z,22.90
2022-10-21T22:26:04.613Z,22.67
2022-10-21T22:28:31.603Z,22.33
2022-10-21T22:31:11.579Z,21.88
2022-10-21T22:33:38.787Z,24.67
2022-10-21T22:36:12.650Z,23.60
2022-10-21T22:38:39.568Z,23.08
2022-10-21T22:41:13.632Z,22.38
2022-10-21T22:43:40.728Z,22.40
2022-10-21T22:46:29.183Z,25.52
2022-10-21T22:49:01.590Z,24.88
2022-10-21T22:51:34.620Z,23.88
2022-10-21T22:54:01.665Z,23.70
2022-10-21T22:56:35.581Z,23.73
2022-10-21T22:59:02.547Z,23.27
2022-10-21T23:01:35.582Z,22.38
2022-10-21T23:04:02.453Z,22.80
2022-10-21T23:06:40.663Z,23.55
2022-10-21T23:09:07.710Z,21.63
2022-10-21T23:11:34.729Z,24.08
2022-10-21T23:14:09.096Z,23.98
2022-10-21T23:16:36.867Z,22.42
2022-10-21T23:19:04.794Z,22.90
2022-10-21T23:21:38.603Z,22.92
2022-10-21T23:24:06.043Z,22.75
2022-10-21T23:26:39.611Z,22.52
2022-10-21T23:29:06.527Z,22.40
2022-10-21T23:31:39.613Z,23.25
2022-10-21T23:34:12.620Z,21.77
2022-10-21T23:36:39.576Z,21.70
2022-10-21T23:39:12.637Z,22.42
2022-10-21T23:41:39.583Z,21.40
2022-10-21T23:44:06.689Z,22.83
2022-10-21T23:46:39.628Z,21.25
2022-10-21T23:49:13.648Z,22.33
2022-10-21T23:51:46.615Z,20.27
2022-10-21T23:54:13.485Z,20.00
2022-10-21T23:56:46.643Z,19.77
2022-10-21T23:59:19.662Z,20.80
